Time;durP1;ratioP1;P1;durP2;ratioP2;P2;SDS_P1;SDS_P2;PMS_P1;PMS_P2;Temp;Humidity;BMP_temperature;BMP_pressure;BME280_temperature;BME280_humidity;BME280_pressure;Samples;Min_cycle;Max_cycle;Signal;HPM_P1;HPM_P2
2022/02/23 00:00:58;;;;;;;19.48;3.80;;;7.60;95.40;;;;;;5039212;28;25072;-77
2022/02/23 00:03:24;;;;;;;16.08;3.88;;;7.60;95.50;;;;;;5035557;28;25075;-77
2022/02/23 00:05:50;;;;;;;24.23;5.88;;;7.50;95.50;;;;;;5034821;28;25097;-77
2022/02/23 00:08:15;;;;;;;25.17;4.60;;;7.50;95.80;;;;;;5017980;28;25076;-77
2022/02/23 00:10:41;;;;;;;27.63;4.85;;;7.40;95.90;;;;;;5031093;28;25145;-76
2022/02/23 00:13:06;;;;;;;22.48;5.53;;;7.40;96.50;;;;;;5029859;28;25068;-79
2022/02/23 00:15:32;;;;;;;19.50;4.50;;;7.30;96.80;;;;;;5018713;28;25055;-78
2022/02/23 00:17:57;;;;;;;30.67;6.85;;;7.20;97.00;;;;;;5036007;28;25080;-78
2022/02/23 00:20:24;;;;;;;14.93;3.70;;;7.20;97.50;;;;;;5013421;28;25075;-77
2022/02/23 00:22:49;;;;;;;26.00;4.00;;;7.10;97.80;;;;;;5033274;28;25105;-76
2022/02/23 00:25:16;;;;;;;27.70;5.10;;;7.10;98.00;;;;;;5019668;28;25098;-77
2022/02/23 00:27:42;;;;;;;25.67;5.28;;;7.20;98.10;;;;;;5024525;28;25076;-78
2022/02/23 00:30:09;;;;;;;30.00;3.90;;;7.10;98.20;;;;;;5031805;28;25077;-77
2022/02/23 00:32:34;;;;;;;26.42;5.22;;;7.10;98.40;;;;;;5010555;28;25060;-78
2022/02/23 00:35:00;;;;;;;21.35;4.65;;;7.10;98.60;;;;;;5010548;28;25073;-76
2022/02/23 00:37:26;;;;;;;29.90;4.72;;;7.00;98.80;;;;;;5028789;28;25099;-76
2022/02/23 00:39:51;;;;;;;21.85;4.78;;;7.00;99.00;;;;;;5031804;28;25087;-76
2022/02/23 00:42:17;;;;;;;24.05;4.95;;;7.00;99.40;;;;;;5032881;28;25086;-76
2022/02/23 00:44:42;;;;;;;27.58;5.05;;;6.90;99.60;;;;;;5013837;28;25052;-76
2022/02/23 00:47:10;;;;;;;24.25;4.60;;;6.90;99.90;;;;;;5025198;28;25070;-77
2022/02/23 00:49:36;;;;;;;25.10;4.82;;;6.80;99.90;;;;;;5028978;28;25066;-76
2022/02/23 00:52:05;;;;;;;19.85;4.10;;;6.80;99.90;;;;;;5029901;28;25063;-77
2022/02/23 00:54:31;;;;;;;30.52;6.80;;;6.80;99.90;;;;;;5013070;28;25065;-77
2022/02/23 00:56:57;;;;;;;22.45;3.97;;;6.80;99.90;;;;;;5029555;28;25112;-77
2022/02/23 00:59:22;;;;;;;32.85;6.13;;;6.80;99.90;;;;;;5033572;28;25070;-78
2022/02/23 01:01:48;;;;;;;27.58;6.07;;;6.80;99.90;;;;;;5034820;28;25066;-78
2022/02/23 01:04:13;;;;;;;21.70;4.65;;;6.70;99.90;;;;;;5016940;28;25072;-78
2022/02/23 01:06:39;;;;;;;18.38;3.88;;;6.80;99.90;;;;;;5028106;28;25073;-77
2022/02/23 01:09:05;;;;;;;16.92;4.53;;;6.80;99.90;;;;;;5027193;28;25073;-77
2022/02/23 01:11:30;;;;;;;19.92;4.75;;;6.80;99.90;;;;;;5005819;28;25062;-74
2022/02/23 01:13:56;;;;;;;25.23;4.35;;;6.80;99.90;;;;;;5018453;28;25121;-77
2022/02/23 01:16:22;;;;;;;23.55;5.55;;;6.80;99.90;;;;;;5018393;28;25065;-76
2022/02/23 01:18:47;;;;;;;22.75;5.05;;;6.80;99.90;;;;;;5019691;28;25074;-79
2022/02/23 01:21:13;;;;;;;24.02;4.50;;;6.90;99.70;;;;;;5030966;28;25068;-79
2022/02/23 01:23:39;;;;;;;24.27;5.03;;;6.80;99.40;;;;;;5023770;28;25092;-77
2022/02/23 01:26:05;;;;;;;21.33;4.05;;;6.90;99.30;;;;;;5029788;28;25088;-76
2022/02/23 01:28:32;;;;;;;19.08;3.97;;;6.80;99.20;;;;;;5021483;28;25086;-78
2022/02/23 01:30:58;;;;;;;23.58;4.05;;;6.80;99.00;;;;;;5025079;28;25082;-77
2022/02/23 01:33:24;;;;;;;30.23;4.65;;;6.80;98.90;;;;;;5005623;28;25070;-77
2022/02/23 01:35:50;;;;;;;17.42;3.05;;;6.90;98.60;;;;;;5018291;28;25163;-77
2022/02/23 01:38:15;;;;;;;20.17;3.75;;;6.90;98.40;;;;;;5017057;28;25049;-76
2022/02/23 01:40:41;;;;;;;19.35;4.07;;;6.90;98.30;;;;;;5020141;28;25079;-77
2022/02/23 01:43:07;;;;;;;28.30;3.70;;;6.90;98.30;;;;;;5017878;28;25064;-77
2022/02/23 01:45:33;;;;;;;30.08;5.07;;;6.90;98.30;;;;;;5015034;28;25091;-77
2022/02/23 01:47:59;;;;;;;18.58;4.40;;;6.80;98.40;;;;;;5014811;28;25060;-77
2022/02/23 01:50:24;;;;;;;20.38;3.78;;;6.70;98.70;;;;;;5022496;28;25067;-77
2022/02/23 01:52:50;;;;;;;20.85;4.30;;;6.70;99.20;;;;;;5024435;28;25098;-76
2022/02/23 01:55:16;;;;;;;30.83;5.15;;;6.60;99.40;;;;;;5019881;28;25089;-78
2022/02/23 01:57:41;;;;;;;19.65;3.63;;;6.60;99.70;;;;;;5019398;28;25145;-76
2022/02/23 02:00:10;;;;;;;31.42;6.38;;;6.50;99.90;;;;;;5003338;28;25102;-77
2022/02/23 02:02:36;;;;;;;19.33;4.10;;;6.40;99.90;;;;;;5014475;28;25081;-78
2022/02/23 02:05:04;;;;;;;21.25;4.25;;;6.30;99.90;;;;;;5019907;28;25058;-76
2022/02/23 02:07:30;;;;;;;25.85;5.05;;;6.30;99.90;;;;;;5018517;28;25068;-77
2022/02/23 02:09:56;;;;;;;37.53;5.15;;;6.30;99.90;;;;;;5002183;28;25122;-78
2022/02/23 02:12:21;;;;;;;24.65;4.55;;;6.20;99.90;;;;;;5017155;28;25068;-78
2022/02/23 02:14:47;;;;;;;22.15;4.40;;;6.30;99.90;;;;;;5003546;28;25046;-78
2022/02/23 02:17:12;;;;;;;22.40;4.00;;;6.30;99.90;;;;;;5017422;28;25088;-78
2022/02/23 02:19:38;;;;;;;20.13;4.65;;;6.30;99.90;;;;;;4999299;28;25070;-77
2022/02/23 02:22:06;;;;;;;21.42;4.60;;;6.30;99.90;;;;;;5007399;28;25054;-77
2022/02/23 02:24:37;;;;;;;28.38;4.40;;;6.30;99.90;;;;;;5025628;28;25098;-78
2022/02/23 02:27:06;;;;;;;23.38;4.85;;;6.20;99.90;;;;;;5025713;28;25073;-76
2022/02/23 02:29:32;;;;;;;27.98;5.43;;;6.20;99.90;;;;;;5026762;28;25041;-78
2022/02/23 02:31:58;;;;;;;31.10;4.55;;;6.30;99.90;;;;;;5024852;28;25054;-78
2022/02/23 02:34:24;;;;;;;34.15;4.97;;;6.30;99.90;;;;;;5023028;28;25089;-78
2022/02/23 02:36:51;;;;;;;29.55;5.22;;;6.20;99.90;;;;;;5005368;28;25099;-76
2022/02/23 02:39:18;;;;;;;24.42;6.03;;;6.30;99.90;;;;;;5017716;28;25057;-78
2022/02/23 02:41:45;;;;;;;24.80;4.07;;;6.30;99.90;;;;;;5015325;28;25156;-77
2022/02/23 02:44:11;;;;;;;21.95;4.40;;;6.20;99.90;;;;;;5014087;28;25061;-77
2022/02/23 02:46:36;;;;;;;27.42;5.13;;;6.20;99.90;;;;;;5014930;28;25135;-76
2022/02/23 02:49:03;;;;;;;28.75;5.45;;;6.10;99.90;;;;;;4997972;28;25061;-77
2022/02/23 02:51:29;;;;;;;25.63;4.95;;;6.10;99.90;;;;;;4996265;28;25165;-76
2022/02/23 02:53:54;;;;;;;21.83;4.55;;;6.10;99.90;;;;;;5013076;28;25067;-78
2022/02/23 02:56:21;;;;;;;23.98;4.93;;;6.00;99.90;;;;;;5012772;28;25061;-76
2022/02/23 02:58:52;;;;;;;22.45;3.78;;;6.00;99.90;;;;;;5014618;28;25060;-76
2022/02/23 03:01:19;;;;;;;22.23;4.55;;;6.00;99.90;;;;;;5015273;28;25071;-78
2022/02/23 03:03:44;;;;;;;23.63;4.25;;;5.90;99.90;;;;;;5012180;28;25156;-77
2022/02/23 03:06:10;;;;;;;25.77;4.30;;;5.90;99.90;;;;;;5013039;28;25068;-77
2022/02/23 03:08:35;;;;;;;21.88;4.20;;;5.80;99.90;;;;;;5012746;28;25069;-77
2022/02/23 03:11:01;;;;;;;22.08;4.07;;;5.80;99.90;;;;;;5012937;28;25164;-75
2022/02/23 03:13:27;;;;;;;24.00;4.75;;;5.80;99.90;;;;;;5013185;28;25112;-77
2022/02/23 03:15:52;;;;;;;28.15;4.70;;;5.80;99.90;;;;;;5013184;28;25174;-77
2022/02/23 03:18:18;;;;;;;24.63;4.47;;;5.80;99.90;;;;;;5012566;28;25046;-77
2022/02/23 03:20:43;;;;;;;23.73;3.75;;;5.80;99.90;;;;;;5013037;28;25082;-78
2022/02/23 03:23:09;;;;;;;30.08;4.80;;;5.80;99.90;;;;;;5013381;28;25075;-77
2022/02/23 03:25:35;;;;;;;29.92;4.97;;;5.80;99.90;;;;;;5004819;28;25057;-77
2022/02/23 03:28:01;;;;;;;17.58;4.07;;;5.80;99.90;;;;;;5007919;28;25099;-77
2022/02/23 03:30:26;;;;;;;22.83;3.85;;;5.80;99.90;;;;;;4996181;28;25074;-77
2022/02/23 03:32:52;;;;;;;26.13;4.05;;;5.80;99.90;;;;;;5022636;28;25079;-77
2022/02/23 03:35:18;;;;;;;36.47;4.95;;;5.80;99.90;;;;;;5020184;28;25086;-77
2022/02/23 03:37:43;;;;;;;21.73;3.78;;;5.70;99.90;;;;;;5016038;28;25083;-77
2022/02/23 03:40:09;;;;;;;19.85;3.78;;;5.70;99.90;;;;;;5015599;28;25071;-77
2022/02/23 03:42:35;;;;;;;24.38;5.50;;;5.70;99.90;;;;;;5014914;28;25125;-76
2022/02/23 03:45:00;;;;;;;20.98;4.28;;;5.60;99.90;;;;;;5005788;28;25077;-78
2022/02/23 03:47:26;;;;;;;32.20;5.30;;;5.60;99.90;;;;;;5010801;28;25137;-77
2022/02/23 03:49:51;;;;;;;22.40;4.57;;;5.70;99.90;;;;;;5000138;28;25059;-77
2022/02/23 03:52:17;;;;;;;19.35;3.97;;;5.60;99.90;;;;;;4997711;28;25071;-77
2022/02/23 03:54:42;;;;;;;26.58;4.50;;;5.60;99.90;;;;;;5018108;28;25077;-76
2022/02/23 03:57:08;;;;;;;21.45;4.60;;;5.50;99.90;;;;;;5017723;28;25110;-77
2022/02/23 03:59:35;;;;;;;28.67;4.22;;;5.50;99.90;;;;;;4996709;28;25139;-76
2022/02/23 04:02:01;;;;;;;23.85;4.75;;;5.50;99.90;;;;;;5012679;28;25067;-77
2022/02/23 04:04:26;;;;;;;34.45;5.10;;;5.60;99.90;;;;;;5011233;28;25067;-77
2022/02/23 04:06:52;;;;;;;23.13;4.15;;;5.60;99.90;;;;;;5011057;28;25086;-76
2022/02/23 04:09:18;;;;;;;18.30;4.18;;;5.50;99.90;;;;;;5011690;28;25060;-78
2022/02/23 04:11:44;;;;;;;22.83;4.30;;;5.60;99.90;;;;;;5013021;28;25084;-78
2022/02/23 04:14:09;;;;;;;25.23;4.20;;;5.60;99.90;;;;;;5011305;28;25119;-78
2022/02/23 04:16:36;;;;;;;23.77;4.38;;;5.50;99.90;;;;;;4992620;28;25145;-78
2022/02/23 04:19:02;;;;;;;18.10;3.45;;;5.50;99.90;;;;;;5011383;28;25091;-78
2022/02/23 04:21:28;;;;;;;23.60;4.22;;;5.50;99.90;;;;;;5010791;28;25048;-78
2022/02/23 04:23:54;;;;;;;21.33;3.53;;;5.50;99.90;;;;;;5011692;28;25079;-77
2022/02/23 04:26:20;;;;;;;21.35;4.80;;;5.40;99.90;;;;;;4993834;28;25232;-78
2022/02/23 04:28:46;;;;;;;24.33;4.82;;;5.40;99.90;;;;;;5012890;28;25137;-77
2022/02/23 04:31:13;;;;;;;26.98;3.90;;;5.30;99.90;;;;;;5012406;28;25097;-76
2022/02/23 04:33:40;;;;;;;24.38;4.93;;;5.30;99.90;;;;;;5011819;28;25094;-77
2022/02/23 04:36:07;;;;;;;19.63;4.22;;;5.30;99.90;;;;;;5012915;28;25066;-76
2022/02/23 04:38:34;;;;;;;24.10;4.43;;;5.30;99.90;;;;;;5012433;28;25152;-76
2022/02/23 04:41:00;;;;;;;30.10;4.43;;;5.30;99.90;;;;;;5021406;28;25072;-78
2022/02/23 04:43:25;;;;;;;26.63;4.47;;;5.20;99.90;;;;;;5008616;28;25076;-77
2022/02/23 04:45:51;;;;;;;25.00;4.78;;;5.20;99.90;;;;;;4998094;28;25054;-78
2022/02/23 04:48:17;;;;;;;21.50;3.92;;;5.30;99.90;;;;;;5001843;28;25133;-77
2022/02/23 04:50:43;;;;;;;21.02;5.05;;;5.30;99.90;;;;;;5004279;28;25049;-78
2022/02/23 04:53:09;;;;;;;21.83;4.20;;;5.30;99.90;;;;;;4999988;28;25073;-77
2022/02/23 04:55:35;;;;;;;22.60;4.47;;;5.30;99.90;;;;;;5000035;28;25077;-77
2022/02/23 04:58:07;;;;;;;30.23;5.32;;;5.30;99.90;;;;;;4997583;28;25071;-77
2022/02/23 05:00:36;;;;;;;19.20;4.75;;;5.20;99.90;;;;;;4987534;28;25153;-77
2022/02/23 05:03:02;;;;;;;25.88;4.72;;;5.20;99.90;;;;;;5000616;28;25078;-78
2022/02/23 05:05:28;;;;;;;20.20;3.80;;;5.20;99.90;;;;;;5001068;28;25069;-79
2022/02/23 05:07:53;;;;;;;23.48;4.43;;;5.20;99.90;;;;;;5011577;28;25060;-77
2022/02/23 05:10:19;;;;;;;27.40;4.78;;;5.20;99.90;;;;;;5011239;28;25058;-76
2022/02/23 05:12:44;;;;;;;25.05;5.43;;;5.20;99.90;;;;;;5010477;28;25055;-77
2022/02/23 05:15:10;;;;;;;21.40;3.78;;;5.20;99.90;;;;;;5006667;28;25092;-77
2022/02/23 05:17:35;;;;;;;26.55;5.05;;;5.20;99.90;;;;;;5010892;28;25077;-77
2022/02/23 05:20:04;;;;;;;26.58;4.43;;;5.20;99.90;;;;;;4997205;28;25053;-76
2022/02/23 05:22:30;;;;;;;28.48;4.93;;;5.20;99.90;;;;;;5003879;28;25159;-77
2022/02/23 05:24:55;;;;;;;29.65;4.93;;;5.20;99.90;;;;;;5008207;28;25162;-76
2022/02/23 05:27:21;;;;;;;25.80;4.57;;;5.20;99.90;;;;;;5005174;28;25055;-76
2022/02/23 05:29:46;;;;;;;26.40;3.95;;;5.10;99.90;;;;;;5009407;28;25066;-76
2022/02/23 05:32:12;;;;;;;21.88;5.13;;;5.10;99.90;;;;;;5008451;28;25066;-76
2022/02/23 05:34:38;;;;;;;23.90;5.13;;;5.10;99.90;;;;;;4997576;28;25072;-76
2022/02/23 05:37:03;;;;;;;32.95;5.97;;;5.00;99.90;;;;;;5011065;28;25071;-76
2022/02/23 05:39:29;;;;;;;32.67;4.55;;;5.00;99.90;;;;;;5026125;28;25091;-76
2022/02/23 05:41:55;;;;;;;30.30;4.35;;;5.00;99.90;;;;;;5011158;28;25149;-77
2022/02/23 05:44:20;;;;;;;19.38;4.88;;;4.90;99.90;;;;;;4989125;28;25110;-75
2022/02/23 05:46:46;;;;;;;29.13;4.45;;;4.90;99.90;;;;;;5000574;28;25127;-74
2022/02/23 05:49:12;;;;;;;19.77;3.92;;;5.00;99.90;;;;;;5000525;28;25128;-76
2022/02/23 05:51:39;;;;;;;24.15;4.38;;;5.00;99.90;;;;;;4999815;28;25144;-74
2022/02/23 05:54:05;;;;;;;32.70;4.70;;;5.00;99.90;;;;;;4997657;28;25058;-74
2022/02/23 05:56:32;;;;;;;31.48;5.30;;;5.00;99.90;;;;;;4999118;28;25155;-73
2022/02/23 05:58:58;;;;;;;23.08;4.72;;;5.00;99.90;;;;;;5001749;28;25093;-74
2022/02/23 06:01:24;;;;;;;26.85;4.97;;;5.00;99.90;;;;;;5009656;28;25067;-75
2022/02/23 06:03:50;;;;;;;28.08;4.60;;;5.00;99.90;;;;;;5015583;28;25087;-76
2022/02/23 06:06:16;;;;;;;28.00;5.22;;;5.00;99.90;;;;;;4999982;28;25108;-75
2022/02/23 06:08:42;;;;;;;32.60;5.43;;;5.00;99.90;;;;;;5013681;28;25083;-76
2022/02/23 06:11:08;;;;;;;27.40;5.28;;;5.00;99.90;;;;;;5012838;28;25100;-76
2022/02/23 06:13:34;;;;;;;22.77;4.95;;;5.00;99.90;;;;;;5014348;28;25142;-75
2022/02/23 06:16:01;;;;;;;24.65;4.72;;;4.90;99.90;;;;;;4998750;28;25098;-75
2022/02/23 06:18:27;;;;;;;25.48;5.00;;;4.80;99.90;;;;;;5017575;28;25067;-75
2022/02/23 06:20:54;;;;;;;26.58;4.15;;;4.80;99.90;;;;;;5008930;28;25160;-76
2022/02/23 06:23:21;;;;;;;32.90;4.75;;;4.80;99.90;;;;;;5013707;28;25090;-76
2022/02/23 06:25:46;;;;;;;29.35;4.60;;;4.80;99.90;;;;;;5018432;28;25073;-77
2022/02/23 06:28:12;;;;;;;28.83;5.00;;;4.70;99.90;;;;;;5009999;28;25078;-76
2022/02/23 06:30:38;;;;;;;27.10;5.00;;;4.60;99.90;;;;;;5016822;28;25076;-77
2022/02/23 06:33:04;;;;;;;31.42;5.07;;;4.60;99.90;;;;;;5026701;28;25064;-77
2022/02/23 06:35:29;;;;;;;29.05;4.53;;;4.50;99.90;;;;;;5023446;28;25052;-76
2022/02/23 06:37:55;;;;;;;19.88;4.93;;;4.40;99.90;;;;;;5022660;28;25074;-76
2022/02/23 06:40:21;;;;;;;25.80;5.05;;;4.40;99.90;;;;;;5002550;28;25067;-77
2022/02/23 06:42:46;;;;;;;33.83;5.32;;;4.40;99.90;;;;;;5015705;28;25071;-78
2022/02/23 06:45:12;;;;;;;26.95;4.65;;;4.30;99.90;;;;;;5021330;28;25071;-77
2022/02/23 06:47:38;;;;;;;18.80;4.32;;;4.30;99.90;;;;;;5026052;28;25063;-76
2022/02/23 06:50:04;;;;;;;20.63;5.05;;;4.40;99.90;;;;;;5026634;28;25072;-77
2022/02/23 06:52:30;;;;;;;29.00;4.63;;;4.30;99.90;;;;;;5021791;28;25090;-77
2022/02/23 06:54:56;;;;;;;27.77;6.05;;;4.30;99.90;;;;;;5026471;28;25104;-76
2022/02/23 06:57:23;;;;;;;27.95;5.65;;;4.30;99.90;;;;;;5025148;28;25070;-77
2022/02/23 06:59:49;;;;;;;21.13;4.40;;;4.30;99.90;;;;;;5021148;28;25071;-75
2022/02/23 07:02:15;;;;;;;34.65;5.70;;;4.20;99.90;;;;;;5017843;28;25136;-77
2022/02/23 07:04:44;;;;;;;29.55;5.88;;;4.20;99.90;;;;;;5021221;28;25047;-76
2022/02/23 07:07:10;;;;;;;18.85;4.72;;;4.30;99.90;;;;;;5023615;28;25074;-75
2022/02/23 07:09:35;;;;;;;25.35;4.88;;;4.30;99.90;;;;;;5019524;28;25078;-76
2022/02/23 07:12:03;;;;;;;27.05;5.30;;;4.20;99.90;;;;;;5021914;28;25094;-76
2022/02/23 07:14:28;;;;;;;24.73;4.95;;;4.20;99.90;;;;;;5020953;28;25068;-73
2022/02/23 07:16:54;;;;;;;26.95;5.15;;;4.20;99.90;;;;;;5024052;28;25082;-75
2022/02/23 07:19:20;;;;;;;24.75;4.90;;;4.30;99.90;;;;;;4999096;28;25116;-75
2022/02/23 07:21:47;;;;;;;25.77;4.82;;;4.30;99.90;;;;;;5015291;28;25071;-75
2022/02/23 07:24:13;;;;;;;22.00;6.43;;;4.40;99.90;;;;;;4996317;28;25097;-76
2022/02/23 07:26:39;;;;;;;27.67;5.40;;;4.40;99.90;;;;;;5013034;28;25143;-74
2022/02/23 07:29:04;;;;;;;20.80;5.13;;;4.50;99.90;;;;;;5013741;28;25072;-75
2022/02/23 07:31:30;;;;;;;26.33;6.05;;;4.60;99.90;;;;;;4995071;28;25057;-75
2022/02/23 07:33:55;;;;;;;22.05;4.72;;;4.60;99.90;;;;;;5010883;28;25170;-75
2022/02/23 07:36:21;;;;;;;26.30;4.97;;;4.60;99.90;;;;;;5011424;28;25098;-75
2022/02/23 07:38:49;;;;;;;23.38;6.28;;;4.60;99.90;;;;;;5011812;28;25114;-76
2022/02/23 07:41:21;;;;;;;36.15;5.85;;;4.70;99.90;;;;;;5020218;28;25060;-75
2022/02/23 07:43:50;;;;;;;20.92;6.13;;;4.70;99.90;;;;;;5020416;28;25101;-77
2022/02/23 07:46:16;;;;;;;23.73;5.20;;;4.80;99.90;;;;;;4996897;28;24963;-76
2022/02/23 07:48:42;;;;;;;24.38;6.40;;;4.90;99.90;;;;;;5015018;28;25102;-75
2022/02/23 07:51:08;;;;;;;29.45;4.72;;;4.90;99.90;;;;;;5015230;28;25074;-75
2022/02/23 07:53:34;;;;;;;26.00;5.40;;;5.10;99.90;;;;;;5025756;28;25067;-74
2022/02/23 07:55:59;;;;;;;26.60;5.30;;;5.20;99.90;;;;;;5015347;28;25064;-74
2022/02/23 07:58:26;;;;;;;32.88;6.20;;;5.30;99.90;;;;;;5038234;28;25069;-78
2022/02/23 08:00:51;;;;;;;31.65;6.18;;;5.30;99.90;;;;;;5038283;28;25084;-77
2022/02/23 08:03:17;;;;;;;28.65;5.88;;;5.40;99.90;;;;;;5037460;28;25077;-76
2022/02/23 08:05:43;;;;;;;27.35;5.35;;;5.50;99.90;;;;;;5035639;28;25089;-76
2022/02/23 08:08:09;;;;;;;25.20;6.22;;;5.60;99.90;;;;;;5027137;28;25050;-76
2022/02/23 08:10:35;;;;;;;37.22;5.88;;;5.60;99.90;;;;;;5016567;28;25049;-76
2022/02/23 08:13:04;;;;;;;35.08;5.90;;;5.70;99.90;;;;;;5015289;28;24830;-76
2022/02/23 08:21:00;;;;;;;24.17;5.93;;;6.00;99.90;;;;;;5017241;28;25076;-76
2022/02/23 08:23:26;;;;;;;31.42;6.65;;;6.00;99.90;;;;;;5018857;28;25061;-76
2022/02/23 08:25:51;;;;;;;22.80;6.38;;;6.10;99.90;;;;;;5016856;28;25075;-75
2022/02/23 08:28:17;;;;;;;24.00;6.45;;;6.20;99.90;;;;;;5016826;28;25145;-75
2022/02/23 08:30:43;;;;;;;24.80;6.78;;;6.20;99.90;;;;;;5012223;28;25057;-76
2022/02/23 08:33:08;;;;;;;33.08;7.60;;;6.20;99.90;;;;;;5012371;28;25109;-76
2022/02/23 08:35:34;;;;;;;30.75;7.68;;;6.30;99.90;;;;;;5012126;28;25059;-77
2022/02/23 08:38:00;;;;;;;24.65;8.27;;;6.40;99.90;;;;;;5012823;28;25087;-76
2022/02/23 08:40:26;;;;;;;41.75;8.55;;;6.40;99.90;;;;;;5012298;28;25253;-76
2022/02/23 08:42:53;;;;;;;32.65;10.20;;;6.40;99.90;;;;;;4978950;28;25099;-78
2022/02/23 08:45:19;;;;;;;29.15;10.43;;;6.40;99.90;;;;;;5012052;28;25095;-76
2022/02/23 08:47:45;;;;;;;45.33;11.43;;;6.40;99.90;;;;;;5012976;28;25110;-75
2022/02/23 08:50:11;;;;;;;40.03;10.63;;;6.50;99.90;;;;;;4993452;28;25049;-76
2022/02/23 08:52:36;;;;;;;37.13;11.90;;;6.70;99.90;;;;;;5011088;28;25103;-76
2022/02/23 08:55:03;;;;;;;43.45;11.85;;;6.90;99.90;;;;;;5009832;28;25066;-76
2022/02/23 08:57:31;;;;;;;28.10;9.80;;;7.00;99.90;;;;;;5011334;28;25087;-78
2022/02/23 08:59:56;;;;;;;43.03;11.50;;;7.20;99.90;;;;;;5011459;28;25078;-77
2022/02/23 09:02:22;;;;;;;36.15;11.77;;;7.30;99.90;;;;;;5010675;28;25072;-77
2022/02/23 09:04:47;;;;;;;38.13;11.60;;;7.30;99.90;;;;;;5010871;28;25065;-77
2022/02/23 09:07:13;;;;;;;33.92;11.75;;;7.50;99.90;;;;;;4997229;28;25106;-76
2022/02/23 09:09:39;;;;;;;32.13;10.05;;;7.50;99.90;;;;;;5017354;28;25106;-76
2022/02/23 09:12:06;;;;;;;29.65;10.07;;;7.70;99.90;;;;;;5019577;28;25075;-75
2022/02/23 09:14:31;;;;;;;31.95;9.70;;;7.70;99.90;;;;;;5015821;28;25082;-78
2022/02/23 09:16:57;;;;;;;33.33;10.60;;;7.80;99.90;;;;;;4993162;28;25098;-76
2022/02/23 09:19:23;;;;;;;36.45;10.65;;;8.00;99.90;;;;;;5009577;28;25075;-76
2022/02/23 09:21:48;;;;;;;32.83;10.07;;;8.00;99.90;;;;;;5009644;28;25067;-76
2022/02/23 09:24:14;;;;;;;34.88;9.57;;;8.20;99.90;;;;;;5009963;28;25075;-76
2022/02/23 09:26:40;;;;;;;24.98;10.02;;;8.40;99.90;;;;;;5008522;28;25087;-77
2022/02/23 09:29:06;;;;;;;34.67;10.32;;;8.50;99.90;;;;;;5009286;28;25056;-74
2022/02/23 09:31:32;;;;;;;28.55;10.07;;;8.70;99.90;;;;;;5010701;28;25128;-76
2022/02/23 09:33:57;;;;;;;30.00;9.88;;;9.00;99.90;;;;;;5009657;28;25092;-76
2022/02/23 09:36:24;;;;;;;29.67;9.35;;;9.20;99.90;;;;;;4992910;28;25152;-77
2022/02/23 09:38:51;;;;;;;32.90;10.07;;;8.70;99.90;;;;;;5009999;28;25068;-78
2022/02/23 09:41:18;;;;;;;28.17;8.90;;;8.50;99.90;;;;;;5013055;28;25075;-78
2022/02/23 09:43:52;;;;;;;35.78;11.57;;;8.50;99.90;;;;;;5012099;28;25030;-80
2022/02/23 09:46:21;;;;;;;27.23;9.55;;;8.50;99.90;;;;;;5021471;28;25098;-76
2022/02/23 09:48:48;;;;;;;26.85;9.95;;;8.40;99.90;;;;;;5021312;28;25076;-75
2022/02/23 09:51:14;;;;;;;28.17;9.65;;;8.30;99.90;;;;;;5018517;28;25131;-76
2022/02/23 09:53:45;;;;;;;36.78;10.05;;;8.40;99.90;;;;;;5016731;28;25049;-74
2022/02/23 09:56:13;;;;;;;38.50;10.95;;;8.40;99.90;;;;;;5021790;28;25086;-77
2022/02/23 09:58:39;;;;;;;25.08;9.15;;;8.40;99.90;;;;;;5017425;28;25066;-74
2022/02/23 10:01:05;;;;;;;29.98;9.50;;;8.50;99.90;;;;;;5009653;28;25052;-75
2022/02/23 10:03:34;;;;;;;21.38;7.90;;;8.60;99.90;;;;;;5009235;28;25051;-77
2022/02/23 10:06:00;;;;;;;28.60;8.63;;;8.80;99.90;;;;;;5008829;28;25078;-76
2022/02/23 10:08:34;;;;;;;24.75;8.68;;;9.00;99.90;;;;;;5009706;28;25053;-75
2022/02/23 10:11:01;;;;;;;29.88;8.70;;;9.00;99.90;;;;;;5009095;28;25071;-75
2022/02/23 10:13:27;;;;;;;25.70;8.95;;;9.30;99.90;;;;;;5008759;28;25053;-75
2022/02/23 10:15:54;;;;;;;29.42;7.60;;;9.60;99.60;;;;;;5008672;28;25073;-75
2022/02/23 10:18:19;;;;;;;26.63;8.50;;;9.70;98.50;;;;;;4997881;28;25067;-75
2022/02/23 10:20:47;;;;;;;27.80;7.65;;;9.60;98.30;;;;;;5011462;28;25062;-74
2022/02/23 10:23:18;;;;;;;20.90;7.13;;;9.70;97.90;;;;;;5009062;28;25094;-76
2022/02/23 10:25:57;;;;;;;26.40;8.33;;;9.70;97.50;;;;;;4990544;28;25062;-76
2022/02/23 10:28:26;;;;;;;18.58;7.63;;;9.80;98.00;;;;;;5009192;28;25110;-76
2022/02/23 10:31:15;;;;;;;27.70;8.20;;;9.70;97.90;;;;;;4990442;28;25089;-75
2022/02/23 10:33:42;;;;;;;25.25;6.95;;;9.80;98.40;;;;;;4988349;28;25090;-76
2022/02/23 10:36:16;;;;;;;23.48;7.03;;;10.00;98.60;;;;;;4988313;28;25168;-76
2022/02/23 10:38:49;;;;;;;22.70;7.78;;;10.20;96.70;;;;;;4990954;28;25094;-77
2022/02/23 10:41:32;;;;;;;32.13;8.65;;;10.30;96.60;;;;;;4992323;28;25074;-74
2022/02/23 10:44:03;;;;;;;31.33;7.97;;;10.30;96.40;;;;;;4976497;28;25153;-77
2022/02/23 10:46:28;;;;;;;24.75;7.47;;;10.30;96.20;;;;;;4992350;28;25071;-75
2022/02/23 10:48:59;;;;;;;27.45;7.13;;;10.30;95.90;;;;;;4993914;28;25061;-75
2022/02/23 10:51:28;;;;;;;26.63;7.05;;;10.30;95.60;;;;;;4992751;28;25097;-75
2022/02/23 10:54:05;;;;;;;22.48;6.13;;;10.20;95.00;;;;;;4992579;28;25073;-75
2022/02/23 10:56:33;;;;;;;26.30;6.03;;;10.10;95.80;;;;;;5010500;28;25077;-76
2022/02/23 10:59:06;;;;;;;27.25;5.65;;;10.20;95.80;;;;;;5013382;28;25132;-75
2022/02/23 11:01:32;;;;;;;;;;;10.40;95.70;;;;;;5012689;28;25076;-75
2022/02/23 11:03:57;;;;;;;16.92;5.05;;;10.60;94.60;;;;;;5011478;28;24058;-75
2022/02/23 11:06:24;;;;;;;16.05;4.68;;;10.90;94.60;;;;;;5011250;28;25116;-78
2022/02/23 11:08:50;;;;;;;18.58;4.50;;;11.00;93.10;;;;;;5011934;28;25074;-75
2022/02/23 11:11:19;;;;;;;22.75;3.95;;;10.90;92.60;;;;;;4994724;28;25138;-78
2022/02/23 11:13:44;;;;;;;19.13;4.35;;;11.00;92.60;;;;;;5011252;28;25066;-74
2022/02/23 11:16:12;;;;;;;17.08;4.88;;;10.90;92.00;;;;;;5012861;28;25104;-76
2022/02/23 11:18:41;;;;;;;16.85;4.78;;;10.80;91.90;;;;;;5011882;28;25060;-76
2022/02/23 11:21:11;;;;;;;16.17;3.80;;;10.90;92.20;;;;;;5011744;28;25060;-76
2022/02/23 11:23:38;;;;;;;17.25;4.00;;;10.90;92.10;;;;;;5010650;28;25117;-73
2022/02/23 11:26:05;;;;;;;11.75;3.92;;;11.20;91.60;;;;;;5010311;28;25129;-77
2022/02/23 11:28:34;;;;;;;18.63;4.43;;;11.30;91.20;;;;;;5012865;28;25050;-76
2022/02/23 11:31:10;;;;;;;15.38;3.25;;;11.40;90.40;;;;;;5011122;28;25060;-74
2022/02/23 11:33:59;;;;;;;17.13;4.53;;;11.60;90.50;;;;;;4974244;28;25053;-77
2022/02/23 11:36:42;;;;;;;16.92;3.95;;;11.80;89.80;;;;;;4990765;28;25067;-76
2022/02/23 11:39:33;;;;;;;19.13;4.13;;;12.40;88.90;;;;;;4991827;28;25071;-77
2022/02/23 11:42:07;;;;;;;20.58;4.15;;;12.00;87.80;;;;;;4991749;28;25155;-78
2022/02/23 11:44:38;;;;;;;15.20;3.97;;;12.00;88.70;;;;;;4975586;28;25161;-76
2022/02/23 11:47:25;;;;;;;15.70;4.53;;;12.20;87.70;;;;;;4991120;28;25056;-75
2022/02/23 11:49:56;;;;;;;22.20;4.30;;;12.20;87.90;;;;;;4991382;28;25064;-76
2022/02/23 11:52:24;;;;;;;12.50;3.67;;;12.30;86.70;;;;;;4974357;28;25052;-77
2022/02/23 11:54:55;;;;;;;18.33;4.15;;;12.40;86.20;;;;;;4995050;28;25154;-76
2022/02/23 11:57:41;;;;;;;20.00;5.00;;;12.30;85.90;;;;;;5010455;28;25064;-76
2022/02/23 12:00:09;;;;;;;13.15;3.90;;;12.20;87.10;;;;;;5011728;28;25073;-75
2022/02/23 12:02:35;;;;;;;21.80;4.43;;;12.40;86.00;;;;;;5010017;28;25064;-75
2022/02/23 12:05:02;;;;;;;20.02;5.05;;;12.70;85.40;;;;;;5010941;28;25050;-76
2022/02/23 12:07:48;;;;;;;16.60;4.40;;;12.90;84.10;;;;;;5013851;28;25071;-74
2022/02/23 12:10:16;;;;;;;16.33;3.60;;;13.10;83.80;;;;;;5001139;28;25050;-76
2022/02/23 12:12:44;;;;;;;15.20;3.90;;;13.10;81.20;;;;;;5012116;28;25106;-76
2022/02/23 12:15:31;;;;;;;20.20;4.47;;;12.90;82.20;;;;;;5014324;28;25115;-75
2022/02/23 12:18:16;;;;;;;18.85;4.55;;;12.80;82.60;;;;;;5010203;28;25066;-76
2022/02/23 12:20:46;;;;;;;17.15;4.47;;;12.60;83.00;;;;;;5011671;28;25074;-76
2022/02/23 12:23:11;;;;;;;16.42;4.03;;;12.80;81.50;;;;;;5010760;28;25075;-76
2022/02/23 12:25:56;;;;;;;20.17;4.97;;;12.80;81.70;;;;;;5011989;28;25062;-75
2022/02/23 12:28:33;;;;;;;20.83;5.85;;;12.80;82.80;;;;;;5011702;28;25102;-75
2022/02/23 12:31:04;;;;;;;20.08;3.97;;;12.80;81.10;;;;;;5011454;28;25057;-73
2022/02/23 12:33:31;;;;;;;19.13;4.77;;;12.80;81.70;;;;;;4993065;28;25074;-78
2022/02/23 12:35:59;;;;;;;20.38;5.82;;;13.20;81.80;;;;;;4993248;28;25075;-77
2022/02/23 12:38:29;;;;;;;20.73;4.95;;;13.30;78.90;;;;;;5010187;28;25048;-75
2022/02/23 12:40:57;;;;;;;15.50;4.65;;;12.90;80.00;;;;;;5010121;28;25066;-75
2022/02/23 12:43:23;;;;;;;16.80;4.60;;;12.80;79.70;;;;;;5010492;28;25061;-75
2022/02/23 12:45:54;;;;;;;17.52;5.70;;;12.90;81.00;;;;;;5009748;28;25077;-76
2022/02/23 12:48:33;;;;;;;18.48;4.72;;;13.10;80.00;;;;;;5010181;28;25071;-74
2022/02/23 12:51:01;;;;;;;19.02;4.38;;;13.30;81.50;;;;;;5009926;28;25126;-75